sensor_id;sensor_type;location;lat;lon;timestamp;P1;durP1;ratioP1;P2;durP2;ratioP2
23866;SDS011;12114;53.404;-1.502;2023-06-26T00:00:59;5.28;;;1.67;;
23866;SDS011;12114;53.404;-1.502;2023-06-26T00:03:44;7.35;;;1.45;;
23866;SDS011;12114;53.404;-1.502;2023-06-26T00:06:29;5.20;;;1.25;;
23866;SDS011;12114;53.404;-1.502;2023-06-26T00:09:13;6.45;;;1.60;;
23866;SDS011;12114;53.404;-1.502;2023-06-26T00:11:57;5.68;;;1.60;;
23866;SDS011;12114;53.404;-1.502;2023-06-26T00:14:41;4.75;;;1.30;;
23866;SDS011;12114;53.404;-1.502;2023-06-26T00:17:25;5.32;;;1.40;;
23866;SDS011;12114;53.404;-1.502;2023-06-26T00:20:09;4.45;;;1.40;;
23866;SDS011;12114;53.404;-1.502;2023-06-26T00:22:53;6.40;;;1.35;;
23866;SDS011;12114;53.404;-1.502;2023-06-26T00:25:37;5.28;;;1.40;;
23866;SDS011;12114;53.404;-1.502;2023-06-26T00:28:21;7.55;;;1.58;;
23866;SDS011;12114;53.404;-1.502;2023-06-26T00:31:05;7.55;;;1.83;;
23866;SDS011;12114;53.404;-1.502;2023-06-26T00:33:49;6.40;;;1.20;;
23866;SDS011;12114;53.404;-1.502;2023-06-26T00:36:33;5.68;;;1.48;;
23866;SDS011;12114;53.404;-1.502;2023-06-26T00:39:17;5.30;;;1.27;;
23866;SDS011;12114;53.404;-1.502;2023-06-26T00:42:00;5.47;;;1.48;;
23866;SDS011;12114;53.404;-1.502;2023-06-26T00:44:44;7.30;;;1.20;;
23866;SDS011;12114;53.404;-1.502;2023-06-26T00:47:28;6.05;;;1.20;;
23866;SDS011;12114;53.404;-1.502;2023-06-26T00:50:12;4.47;;;1.20;;
23866;SDS011;12114;53.404;-1.502;2023-06-26T00:52:59;8.63;;;1.33;;
23866;SDS011;12114;53.404;-1.502;2023-06-26T00:55:45;5.82;;;1.30;;
23866;SDS011;12114;53.404;-1.502;2023-06-26T00:58:29;9.88;;;1.40;;
23866;SDS011;12114;53.404;-1.502;2023-06-26T01:01:13;8.65;;;1.55;;
23866;SDS011;12114;53.404;-1.502;2023-06-26T01:04:01;6.65;;;1.58;;
23866;SDS011;12114;53.404;-1.502;2023-06-26T01:06:46;4.38;;;1.02;;
23866;SDS011;12114;53.404;-1.502;2023-06-26T01:09:33;6.88;;;1.80;;
23866;SDS011;12114;53.404;-1.502;2023-06-26T01:12:17;5.47;;;1.27;;
23866;SDS011;12114;53.404;-1.502;2023-06-26T01:15:01;6.78;;;1.38;;
23866;SDS011;12114;53.404;-1.502;2023-06-26T01:17:45;7.85;;;1.38;;
23866;SDS011;12114;53.404;-1.502;2023-06-26T01:23:29;4.25;;;1.20;;
23866;SDS011;12114;53.404;-1.502;2023-06-26T01:26:15;6.03;;;1.00;;
23866;SDS011;12114;53.404;-1.502;2023-06-26T01:31:44;3.72;;;1.08;;
23866;SDS011;12114;53.404;-1.502;2023-06-26T01:34:31;4.05;;;1.27;;
23866;SDS011;12114;53.404;-1.502;2023-06-26T01:37:15;5.47;;;1.58;;
23866;SDS011;12114;53.404;-1.502;2023-06-26T01:39:59;2.95;;;1.08;;
23866;SDS011;12114;53.404;-1.502;2023-06-26T01:42:43;6.43;;;1.13;;
23866;SDS011;12114;53.404;-1.502;2023-06-26T01:45:27;7.97;;;1.80;;
23866;SDS011;12114;53.404;-1.502;2023-06-26T01:48:13;5.15;;;1.23;;
23866;SDS011;12114;53.404;-1.502;2023-06-26T01:51:00;5.15;;;1.45;;
23866;SDS011;12114;53.404;-1.502;2023-06-26T01:53:46;6.63;;;1.42;;
23866;SDS011;12114;53.404;-1.502;2023-06-26T01:56:30;4.40;;;1.40;;
23866;SDS011;12114;53.404;-1.502;2023-06-26T01:59:15;4.45;;;1.83;;
23866;SDS011;12114;53.404;-1.502;2023-06-26T02:02:00;6.97;;;1.83;;
23866;SDS011;12114;53.404;-1.502;2023-06-26T02:04:45;2.78;;;1.30;;
23866;SDS011;12114;53.404;-1.502;2023-06-26T02:07:32;6.93;;;1.73;;
23866;SDS011;12114;53.404;-1.502;2023-06-26T02:10:16;5.45;;;1.60;;
23866;SDS011;12114;53.404;-1.502;2023-06-26T02:13:00;4.82;;;1.40;;
23866;SDS011;12114;53.404;-1.502;2023-06-26T02:15:44;7.28;;;1.90;;
23866;SDS011;12114;53.404;-1.502;2023-06-26T02:18:28;5.82;;;1.58;;
23866;SDS011;12114;53.404;-1.502;2023-06-26T02:21:12;4.63;;;1.67;;
23866;SDS011;12114;53.404;-1.502;2023-06-26T02:23:56;6.03;;;1.63;;
23866;SDS011;12114;53.404;-1.502;2023-06-26T02:26:40;4.32;;;1.27;;
23866;SDS011;12114;53.404;-1.502;2023-06-26T02:29:24;6.07;;;1.70;;
23866;SDS011;12114;53.404;-1.502;2023-06-26T02:32:08;4.95;;;1.40;;
23866;SDS011;12114;53.404;-1.502;2023-06-26T02:34:52;5.93;;;1.88;;
23866;SDS011;12114;53.404;-1.502;2023-06-26T02:37:37;4.03;;;1.38;;
23866;SDS011;12114;53.404;-1.502;2023-06-26T02:40:21;4.78;;;1.40;;
23866;SDS011;12114;53.404;-1.502;2023-06-26T02:43:06;5.53;;;1.85;;
23866;SDS011;12114;53.404;-1.502;2023-06-26T02:45:50;7.33;;;1.80;;
23866;SDS011;12114;53.404;-1.502;2023-06-26T02:48:34;6.65;;;1.77;;
23866;SDS011;12114;53.404;-1.502;2023-06-26T02:51:19;4.65;;;1.60;;
23866;SDS011;12114;53.404;-1.502;2023-06-26T02:54:03;6.50;;;1.50;;
23866;SDS011;12114;53.404;-1.502;2023-06-26T02:56:47;2.90;;;1.33;;
23866;SDS011;12114;53.404;-1.502;2023-06-26T02:59:32;3.75;;;1.52;;
23866;SDS011;12114;53.404;-1.502;2023-06-26T03:02:16;5.32;;;1.52;;
23866;SDS011;12114;53.404;-1.502;2023-06-26T03:05:00;4.85;;;1.42;;
23866;SDS011;12114;53.404;-1.502;2023-06-26T03:07:44;4.53;;;1.70;;
23866;SDS011;12114;53.404;-1.502;2023-06-26T03:10:27;5.95;;;1.67;;
23866;SDS011;12114;53.404;-1.502;2023-06-26T03:13:11;4.50;;;1.55;;
23866;SDS011;12114;53.404;-1.502;2023-06-26T03:15:55;2.28;;;1.42;;
23866;SDS011;12114;53.404;-1.502;2023-06-26T03:18:39;5.63;;;1.75;;
23866;SDS011;12114;53.404;-1.502;2023-06-26T03:21:23;4.65;;;1.85;;
23866;SDS011;12114;53.404;-1.502;2023-06-26T03:24:07;5.30;;;1.80;;
23866;SDS011;12114;53.404;-1.502;2023-06-26T03:26:51;4.28;;;1.75;;
23866;SDS011;12114;53.404;-1.502;2023-06-26T03:29:35;5.75;;;1.60;;
23866;SDS011;12114;53.404;-1.502;2023-06-26T03:32:19;4.28;;;1.60;;
23866;SDS011;12114;53.404;-1.502;2023-06-26T03:35:03;6.38;;;1.75;;
23866;SDS011;12114;53.404;-1.502;2023-06-26T03:37:48;6.57;;;1.63;;
23866;SDS011;12114;53.404;-1.502;2023-06-26T03:40:32;8.88;;;1.88;;
23866;SDS011;12114;53.404;-1.502;2023-06-26T03:43:16;4.75;;;1.63;;
23866;SDS011;12114;53.404;-1.502;2023-06-26T03:46:00;8.95;;;1.85;;
23866;SDS011;12114;53.404;-1.502;2023-06-26T03:48:44;6.70;;;1.58;;
23866;SDS011;12114;53.404;-1.502;2023-06-26T03:51:28;5.60;;;1.65;;
23866;SDS011;12114;53.404;-1.502;2023-06-26T03:54:12;6.07;;;1.80;;
23866;SDS011;12114;53.404;-1.502;2023-06-26T03:56:56;7.97;;;2.10;;
23866;SDS011;12114;53.404;-1.502;2023-06-26T03:59:40;4.72;;;2.20;;
23866;SDS011;12114;53.404;-1.502;2023-06-26T04:02:24;6.70;;;2.20;;
23866;SDS011;12114;53.404;-1.502;2023-06-26T04:05:08;8.30;;;1.73;;
23866;SDS011;12114;53.404;-1.502;2023-06-26T04:07:52;6.85;;;2.10;;
23866;SDS011;12114;53.404;-1.502;2023-06-26T04:10:36;4.65;;;1.92;;
23866;SDS011;12114;53.404;-1.502;2023-06-26T04:13:20;5.82;;;1.90;;
23866;SDS011;12114;53.404;-1.502;2023-06-26T04:16:04;4.75;;;1.90;;
23866;SDS011;12114;53.404;-1.502;2023-06-26T04:18:50;4.50;;;1.90;;
23866;SDS011;12114;53.404;-1.502;2023-06-26T04:21:33;5.82;;;2.05;;
23866;SDS011;12114;53.404;-1.502;2023-06-26T04:24:17;5.63;;;2.17;;
23866;SDS011;12114;53.404;-1.502;2023-06-26T04:27:01;6.10;;;2.08;;
23866;SDS011;12114;53.404;-1.502;2023-06-26T04:29:45;7.30;;;2.75;;
23866;SDS011;12114;53.404;-1.502;2023-06-26T04:32:29;6.43;;;2.03;;
23866;SDS011;12114;53.404;-1.502;2023-06-26T04:35:13;8.10;;;2.33;;
23866;SDS011;12114;53.404;-1.502;2023-06-26T04:37:57;6.63;;;2.10;;
23866;SDS011;12114;53.404;-1.502;2023-06-26T04:40:41;6.07;;;2.28;;
23866;SDS011;12114;53.404;-1.502;2023-06-26T04:43:25;7.63;;;2.28;;
23866;SDS011;12114;53.404;-1.502;2023-06-26T04:46:09;7.03;;;2.13;;
23866;SDS011;12114;53.404;-1.502;2023-06-26T04:48:53;6.63;;;2.10;;
23866;SDS011;12114;53.404;-1.502;2023-06-26T04:51:37;5.40;;;2.13;;
23866;SDS011;12114;53.404;-1.502;2023-06-26T04:54:23;7.90;;;2.00;;
23866;SDS011;12114;53.404;-1.502;2023-06-26T04:57:07;6.50;;;2.25;;
23866;SDS011;12114;53.404;-1.502;2023-06-26T04:59:52;5.75;;;1.80;;
23866;SDS011;12114;53.404;-1.502;2023-06-26T05:02:36;4.78;;;1.58;;
23866;SDS011;12114;53.404;-1.502;2023-06-26T05:05:20;9.18;;;1.75;;
23866;SDS011;12114;53.404;-1.502;2023-06-26T05:08:14;6.07;;;1.80;;
23866;SDS011;12114;53.404;-1.502;2023-06-26T05:10:58;8.45;;;1.52;;
23866;SDS011;12114;53.404;-1.502;2023-06-26T05:13:42;6.85;;;1.65;;
23866;SDS011;12114;53.404;-1.502;2023-06-26T05:16:26;5.20;;;1.55;;
23866;SDS011;12114;53.404;-1.502;2023-06-26T05:19:11;5.37;;;1.70;;
23866;SDS011;12114;53.404;-1.502;2023-06-26T05:21:55;5.28;;;1.50;;
23866;SDS011;12114;53.404;-1.502;2023-06-26T05:24:39;6.03;;;1.35;;
23866;SDS011;12114;53.404;-1.502;2023-06-26T05:27:24;6.90;;;1.55;;
23866;SDS011;12114;53.404;-1.502;2023-06-26T05:30:08;5.68;;;2.20;;
23866;SDS011;12114;53.404;-1.502;2023-06-26T05:32:55;5.75;;;1.92;;
23866;SDS011;12114;53.404;-1.502;2023-06-26T05:35:40;5.47;;;1.85;;
23866;SDS011;12114;53.404;-1.502;2023-06-26T05:38:24;7.90;;;2.20;;
23866;SDS011;12114;53.404;-1.502;2023-06-26T05:41:08;9.52;;;2.08;;
23866;SDS011;12114;53.404;-1.502;2023-06-26T05:43:52;6.63;;;2.38;;
23866;SDS011;12114;53.404;-1.502;2023-06-26T05:46:38;7.97;;;2.38;;
23866;SDS011;12114;53.404;-1.502;2023-06-26T05:49:22;3.33;;;2.03;;
23866;SDS011;12114;53.404;-1.502;2023-06-26T05:52:06;9.05;;;1.75;;
23866;SDS011;12114;53.404;-1.502;2023-06-26T05:54:51;7.07;;;2.10;;
23866;SDS011;12114;53.404;-1.502;2023-06-26T05:57:38;5.03;;;1.70;;
23866;SDS011;12114;53.404;-1.502;2023-06-26T06:00:24;9.45;;;1.90;;
23866;SDS011;12114;53.404;-1.502;2023-06-26T06:03:09;6.05;;;2.13;;
23866;SDS011;12114;53.404;-1.502;2023-06-26T06:05:54;7.38;;;2.03;;
23866;SDS011;12114;53.404;-1.502;2023-06-26T06:08:38;4.80;;;1.67;;
23866;SDS011;12114;53.404;-1.502;2023-06-26T06:11:22;7.78;;;1.92;;
23866;SDS011;12114;53.404;-1.502;2023-06-26T06:14:06;5.07;;;1.63;;
23866;SDS011;12114;53.404;-1.502;2023-06-26T06:16:50;5.57;;;1.92;;
23866;SDS011;12114;53.404;-1.502;2023-06-26T06:19:34;10.38;;;2.15;;
23866;SDS011;12114;53.404;-1.502;2023-06-26T06:22:18;8.32;;;2.35;;
23866;SDS011;12114;53.404;-1.502;2023-06-26T06:25:02;5.60;;;1.20;;
23866;SDS011;12114;53.404;-1.502;2023-06-26T06:27:46;7.70;;;1.50;;
23866;SDS011;12114;53.404;-1.502;2023-06-26T06:30:30;7.57;;;1.63;;
23866;SDS011;12114;53.404;-1.502;2023-06-26T06:33:14;12.13;;;1.80;;
23866;SDS011;12114;53.404;-1.502;2023-06-26T06:35:58;5.60;;;1.50;;
23866;SDS011;12114;53.404;-1.502;2023-06-26T06:38:42;10.52;;;1.80;;
23866;SDS011;12114;53.404;-1.502;2023-06-26T06:41:27;8.40;;;2.17;;
23866;SDS011;12114;53.404;-1.502;2023-06-26T06:44:11;10.55;;;1.95;;
23866;SDS011;12114;53.404;-1.502;2023-06-26T06:46:55;8.07;;;1.85;;
23866;SDS011;12114;53.404;-1.502;2023-06-26T06:49:39;9.27;;;2.10;;
23866;SDS011;12114;53.404;-1.502;2023-06-26T06:52:23;6.75;;;1.85;;
23866;SDS011;12114;53.404;-1.502;2023-06-26T06:55:07;9.80;;;1.65;;
23866;SDS011;12114;53.404;-1.502;2023-06-26T06:57:52;7.47;;;1.95;;
23866;SDS011;12114;53.404;-1.502;2023-06-26T07:00:36;12.55;;;2.03;;
23866;SDS011;12114;53.404;-1.502;2023-06-26T07:03:20;6.65;;;1.50;;
23866;SDS011;12114;53.404;-1.502;2023-06-26T07:06:05;6.57;;;1.80;;
23866;SDS011;12114;53.404;-1.502;2023-06-26T07:08:48;6.30;;;1.90;;
23866;SDS011;12114;53.404;-1.502;2023-06-26T07:11:33;8.98;;;1.85;;
23866;SDS011;12114;53.404;-1.502;2023-06-26T07:14:17;8.57;;;1.55;;
23866;SDS011;12114;53.404;-1.502;2023-06-26T07:17:01;7.43;;;1.50;;
23866;SDS011;12114;53.404;-1.502;2023-06-26T07:19:45;8.43;;;1.40;;
23866;SDS011;12114;53.404;-1.502;2023-06-26T07:22:30;6.63;;;1.40;;
23866;SDS011;12114;53.404;-1.502;2023-06-26T07:25:14;8.90;;;1.95;;
23866;SDS011;12114;53.404;-1.502;2023-06-26T07:27:58;8.45;;;1.60;;
23866;SDS011;12114;53.404;-1.502;2023-06-26T07:30:42;5.82;;;1.13;;
23866;SDS011;12114;53.404;-1.502;2023-06-26T07:33:26;4.82;;;1.10;;
23866;SDS011;12114;53.404;-1.502;2023-06-26T07:36:10;7.45;;;1.35;;
23866;SDS011;12114;53.404;-1.502;2023-06-26T07:38:54;6.38;;;1.48;;
23866;SDS011;12114;53.404;-1.502;2023-06-26T07:41:38;4.65;;;1.50;;
23866;SDS011;12114;53.404;-1.502;2023-06-26T07:44:22;8.70;;;1.40;;
23866;SDS011;12114;53.404;-1.502;2023-06-26T07:47:06;5.25;;;1.00;;
23866;SDS011;12114;53.404;-1.502;2023-06-26T07:49:50;6.28;;;1.02;;
23866;SDS011;12114;53.404;-1.502;2023-06-26T07:52:34;9.43;;;1.50;;
23866;SDS011;12114;53.404;-1.502;2023-06-26T07:55:18;4.32;;;1.35;;
23866;SDS011;12114;53.404;-1.502;2023-06-26T07:58:02;7.10;;;1.27;;
23866;SDS011;12114;53.404;-1.502;2023-06-26T08:00:46;6.07;;;1.42;;
23866;SDS011;12114;53.404;-1.502;2023-06-26T08:03:30;5.55;;;1.20;;
23866;SDS011;12114;53.404;-1.502;2023-06-26T08:06:14;4.75;;;0.95;;
23866;SDS011;12114;53.404;-1.502;2023-06-26T08:08:58;4.28;;;1.30;;
23866;SDS011;12114;53.404;-1.502;2023-06-26T08:11:42;6.45;;;1.23;;
23866;SDS011;12114;53.404;-1.502;2023-06-26T08:14:26;6.65;;;1.15;;
23866;SDS011;12114;53.404;-1.502;2023-06-26T08:17:10;5.47;;;1.27;;
23866;SDS011;12114;53.404;-1.502;2023-06-26T08:19:54;7.40;;;1.52;;
23866;SDS011;12114;53.404;-1.502;2023-06-26T08:22:37;8.30;;;1.73;;
23866;SDS011;12114;53.404;-1.502;2023-06-26T08:25:21;8.13;;;1.30;;
23866;SDS011;12114;53.404;-1.502;2023-06-26T08:28:05;3.20;;;0.98;;
23866;SDS011;12114;53.404;-1.502;2023-06-26T08:30:49;11.40;;;1.75;;
23866;SDS011;12114;53.404;-1.502;2023-06-26T08:33:33;4.70;;;0.88;;
23866;SDS011;12114;53.404;-1.502;2023-06-26T08:36:17;5.47;;;1.02;;
23866;SDS011;12114;53.404;-1.502;2023-06-26T08:39:01;6.53;;;0.90;;
23866;SDS011;12114;53.404;-1.502;2023-06-26T08:41:46;4.00;;;1.08;;
23866;SDS011;12114;53.404;-1.502;2023-06-26T08:44:30;7.38;;;1.15;;
23866;SDS011;12114;53.404;-1.502;2023-06-26T08:47:14;4.38;;;0.98;;
23866;SDS011;12114;53.404;-1.502;2023-06-26T08:50:08;5.57;;;0.93;;
23866;SDS011;12114;53.404;-1.502;2023-06-26T08:52:56;6.13;;;1.35;;
23866;SDS011;12114;53.404;-1.502;2023-06-26T08:55:42;7.72;;;1.55;;
23866;SDS011;12114;53.404;-1.502;2023-06-26T08:58:26;5.75;;;1.23;;
23866;SDS011;12114;53.404;-1.502;2023-06-26T09:01:11;7.60;;;1.33;;
23866;SDS011;12114;53.404;-1.502;2023-06-26T09:03:54;7.45;;;1.17;;
23866;SDS011;12114;53.404;-1.502;2023-06-26T09:06:38;4.00;;;1.10;;
23866;SDS011;12114;53.404;-1.502;2023-06-26T09:09:23;5.57;;;1.40;;
23866;SDS011;12114;53.404;-1.502;2023-06-26T09:12:08;5.93;;;1.38;;
23866;SDS011;12114;53.404;-1.502;2023-06-26T09:14:52;4.85;;;1.20;;
23866;SDS011;12114;53.404;-1.502;2023-06-26T09:17:39;6.07;;;1.23;;
23866;SDS011;12114;53.404;-1.502;2023-06-26T09:20:27;4.43;;;1.25;;
23866;SDS011;12114;53.404;-1.502;2023-06-26T09:23:11;4.10;;;1.07;;
23866;SDS011;12114;53.404;-1.502;2023-06-26T09:25:55;8.02;;;1.25;;
23866;SDS011;12114;53.404;-1.502;2023-06-26T09:28:41;8.75;;;1.45;;
23866;SDS011;12114;53.404;-1.502;2023-06-26T09:34:09;3.47;;;0.95;;
23866;SDS011;12114;53.404;-1.502;2023-06-26T09:36:54;4.38;;;0.70;;
23866;SDS011;12114;53.404;-1.502;2023-06-26T09:39:39;3.17;;;0.80;;
23866;SDS011;12114;53.404;-1.502;2023-06-26T09:42:23;4.32;;;0.90;;
23866;SDS011;12114;53.404;-1.502;2023-06-26T09:45:07;4.10;;;0.82;;
23866;SDS011;12114;53.404;-1.502;2023-06-26T09:47:51;6.53;;;1.10;;
23866;SDS011;12114;53.404;-1.502;2023-06-26T09:50:34;4.25;;;1.02;;
23866;SDS011;12114;53.404;-1.502;2023-06-26T09:53:20;3.90;;;0.85;;
23866;SDS011;12114;53.404;-1.502;2023-06-26T09:56:07;4.30;;;0.68;;
23866;SDS011;12114;53.404;-1.502;2023-06-26T09:58:51;4.50;;;0.90;;
23866;SDS011;12114;53.404;-1.502;2023-06-26T10:01:39;7.90;;;1.13;;
23866;SDS011;12114;53.404;-1.502;2023-06-26T10:04:23;4.20;;;0.63;;
23866;SDS011;12114;53.404;-1.502;2023-06-26T10:07:11;7.25;;;1.05;;
23866;SDS011;12114;53.404;-1.502;2023-06-26T10:09:55;5.32;;;0.88;;
23866;SDS011;12114;53.404;-1.502;2023-06-26T10:12:40;8.60;;;0.70;;
23866;SDS011;12114;53.404;-1.502;2023-06-26T10:15:27;5.90;;;0.98;;
23866;SDS011;12114;53.404;-1.502;2023-06-26T10:18:13;5.28;;;0.85;;
23866;SDS011;12114;53.404;-1.502;2023-06-26T10:20:58;2.92;;;0.77;;
23866;SDS011;12114;53.404;-1.502;2023-06-26T10:23:43;5.70;;;0.70;;
23866;SDS011;12114;53.404;-1.502;2023-06-26T10:26:28;5.90;;;0.83;;
23866;SDS011;12114;53.404;-1.502;2023-06-26T10:29:12;2.15;;;0.73;;
23866;SDS011;12114;53.404;-1.502;2023-06-26T10:31:58;4.00;;;0.85;;
23866;SDS011;12114;53.404;-1.502;2023-06-26T10:34:43;5.00;;;1.10;;
23866;SDS011;12114;53.404;-1.502;2023-06-26T10:38:10;5.18;;;0.80;;
23866;SDS011;12114;53.404;-1.502;2023-06-26T10:40:47;3.70;;;0.80;;
23866;SDS011;12114;53.404;-1.502;2023-06-26T10:43:35;3.88;;;0.73;;
23866;SDS011;12114;53.404;-1.502;2023-06-26T10:46:22;3.65;;;1.08;;
23866;SDS011;12114;53.404;-1.502;2023-06-26T10:49:06;4.00;;;0.60;;
23866;SDS011;12114;53.404;-1.502;2023-06-26T10:51:56;3.33;;;0.68;;
23866;SDS011;12114;53.404;-1.502;2023-06-26T10:54:44;2.65;;;0.73;;
23866;SDS011;12114;53.404;-1.502;2023-06-26T10:57:28;3.47;;;0.80;;
23866;SDS011;12114;53.404;-1.502;2023-06-26T11:00:14;6.28;;;0.77;;
23866;SDS011;12114;53.404;-1.502;2023-06-26T11:02:57;5.05;;;0.90;;
23866;SDS011;12114;53.404;-1.502;2023-06-26T11:05:41;5.57;;;0.98;;
23866;SDS011;12114;53.404;-1.502;2023-06-26T11:08:43;5.50;;;0.75;;
23866;SDS011;12114;53.404;-1.502;2023-06-26T11:14:31;5.07;;;0.90;;
23866;SDS011;12114;53.404;-1.502;2023-06-26T11:17:16;4.15;;;0.88;;
23866;SDS011;12114;53.404;-1.502;2023-06-26T11:20:03;2.80;;;0.88;;
23866;SDS011;12114;53.404;-1.502;2023-06-26T11:22:48;3.60;;;0.60;;
23866;SDS011;12114;53.404;-1.502;2023-06-26T11:25:36;3.65;;;0.80;;
23866;SDS011;12114;53.404;-1.502;2023-06-26T11:28:21;6.03;;;0.90;;
23866;SDS011;12114;53.404;-1.502;2023-06-26T11:31:04;4.53;;;0.73;;
23866;SDS011;12114;53.404;-1.502;2023-06-26T11:33:48;2.80;;;0.80;;
23866;SDS011;12114;53.404;-1.502;2023-06-26T11:36:33;3.53;;;0.60;;
23866;SDS011;12114;53.404;-1.502;2023-06-26T11:39:20;4.38;;;0.80;;
23866;SDS011;12114;53.404;-1.502;2023-06-26T11:42:04;3.05;;;0.80;;
23866;SDS011;12114;53.404;-1.502;2023-06-26T11:44:48;4.75;;;0.90;;
23866;SDS011;12114;53.404;-1.502;2023-06-26T11:47:32;1.58;;;0.60;;
23866;SDS011;12114;53.404;-1.502;2023-06-26T11:50:16;2.47;;;0.70;;
23866;SDS011;12114;53.404;-1.502;2023-06-26T11:53:02;5.38;;;0.85;;
23866;SDS011;12114;53.404;-1.502;2023-06-26T11:55:49;5.22;;;1.10;;
23866;SDS011;12114;53.404;-1.502;2023-06-26T11:58:33;3.33;;;0.65;;
23866;SDS011;12114;53.404;-1.502;2023-06-26T12:01:17;4.25;;;0.70;;
23866;SDS011;12114;53.404;-1.502;2023-06-26T12:04:05;4.57;;;0.85;;
23866;SDS011;12114;53.404;-1.502;2023-06-26T12:06:50;2.80;;;0.60;;
23866;SDS011;12114;53.404;-1.502;2023-06-26T12:09:37;3.90;;;0.80;;
23866;SDS011;12114;53.404;-1.502;2023-06-26T12:12:22;3.75;;;0.88;;
23866;SDS011;12114;53.404;-1.502;2023-06-26T12:15:07;4.78;;;0.90;;
23866;SDS011;12114;53.404;-1.502;2023-06-26T12:17:51;4.27;;;0.80;;
23866;SDS011;12114;53.404;-1.502;2023-06-26T12:20:39;5.40;;;0.98;;
23866;SDS011;12114;53.404;-1.502;2023-06-26T12:23:23;4.97;;;1.05;;
23866;SDS011;12114;53.404;-1.502;2023-06-26T12:26:20;5.97;;;0.93;;
23866;SDS011;12114;53.404;-1.502;2023-06-26T12:29:08;4.05;;;0.98;;
23866;SDS011;12114;53.404;-1.502;2023-06-26T12:31:52;3.97;;;1.00;;
23866;SDS011;12114;53.404;-1.502;2023-06-26T12:34:37;4.32;;;0.90;;
23866;SDS011;12114;53.404;-1.502;2023-06-26T12:37:21;4.78;;;0.73;;
23866;SDS011;12114;53.404;-1.502;2023-06-26T12:40:15;4.00;;;0.90;;
23866;SDS011;12114;53.404;-1.502;2023-06-26T12:43:00;4.68;;;0.80;;
23866;SDS011;12114;53.404;-1.502;2023-06-26T12:45:45;4.45;;;1.00;;
23866;SDS011;12114;53.404;-1.502;2023-06-26T12:48:39;4.00;;;0.70;;
23866;SDS011;12114;53.404;-1.502;2023-06-26T12:51:27;3.58;;;0.85;;
23866;SDS011;12114;53.404;-1.502;2023-06-26T12:54:11;4.50;;;0.80;;
23866;SDS011;12114;53.404;-1.502;2023-06-26T12:56:55;4.35;;;0.80;;
23866;SDS011;12114;53.404;-1.502;2023-06-26T12:59:39;4.35;;;0.90;;
23866;SDS011;12114;53.404;-1.502;2023-06-26T13:02:23;4.25;;;0.80;;
23866;SDS011;12114;53.404;-1.502;2023-06-26T13:05:07;2.85;;;0.82;;
23866;SDS011;12114;53.404;-1.502;2023-06-26T13:07:51;5.05;;;0.98;;
23866;SDS011;12114;53.404;-1.502;2023-06-26T13:10:35;4.72;;;1.13;;
23866;SDS011;12114;53.404;-1.502;2023-06-26T13:13:19;4.57;;;0.82;;
23866;SDS011;12114;53.404;-1.502;2023-06-26T13:16:03;3.55;;;0.70;;
23866;SDS011;12114;53.404;-1.502;2023-06-26T13:18:48;1.67;;;0.50;;
23866;SDS011;12114;53.404;-1.502;2023-06-26T13:21:33;2.33;;;0.50;;
23866;SDS011;12114;53.404;-1.502;2023-06-26T13:24:17;1.80;;;0.60;;
23866;SDS011;12114;53.404;-1.502;2023-06-26T13:27:01;3.88;;;0.85;;
23866;SDS011;12114;53.404;-1.502;2023-06-26T13:29:45;4.32;;;0.52;;
23866;SDS011;12114;53.404;-1.502;2023-06-26T13:32:29;3.17;;;0.60;;
23866;SDS011;12114;53.404;-1.502;2023-06-26T13:35:13;4.05;;;0.73;;
23866;SDS011;12114;53.404;-1.502;2023-06-26T13:37:57;1.67;;;0.40;;
23866;SDS011;12114;53.404;-1.502;2023-06-26T13:40:41;2.75;;;0.55;;
23866;SDS011;12114;53.404;-1.502;2023-06-26T13:43:26;4.40;;;0.77;;
23866;SDS011;12114;53.404;-1.502;2023-06-26T13:46:10;3.27;;;0.50;;
23866;SDS011;12114;53.404;-1.502;2023-06-26T13:48:54;1.10;;;0.45;;
23866;SDS011;12114;53.404;-1.502;2023-06-26T13:51:38;2.83;;;0.60;;
23866;SDS011;12114;53.404;-1.502;2023-06-26T13:54:28;5.68;;;1.02;;
23866;SDS011;12114;53.404;-1.502;2023-06-26T13:57:12;3.50;;;0.55;;
23866;SDS011;12114;53.404;-1.502;2023-06-26T13:59:56;3.65;;;0.70;;
23866;SDS011;12114;53.404;-1.502;2023-06-26T14:02:40;3.55;;;0.77;;
23866;SDS011;12114;53.404;-1.502;2023-06-26T14:05:24;2.92;;;0.75;;
23866;SDS011;12114;53.404;-1.502;2023-06-26T14:08:08;4.43;;;0.63;;
23866;SDS011;12114;53.404;-1.502;2023-06-26T14:10:52;9.48;;;0.80;;
23866;SDS011;12114;53.404;-1.502;2023-06-26T14:13:36;2.08;;;0.50;;
23866;SDS011;12114;53.404;-1.502;2023-06-26T14:16:20;3.30;;;0.60;;
23866;SDS011;12114;53.404;-1.502;2023-06-26T14:19:04;3.38;;;0.50;;
23866;SDS011;12114;53.404;-1.502;2023-06-26T14:21:49;1.98;;;0.50;;
23866;SDS011;12114;53.404;-1.502;2023-06-26T14:24:33;3.60;;;0.70;;
23866;SDS011;12114;53.404;-1.502;2023-06-26T14:27:17;3.28;;;0.50;;
23866;SDS011;12114;53.404;-1.502;2023-06-26T14:30:01;3.88;;;0.77;;
23866;SDS011;12114;53.404;-1.502;2023-06-26T14:32:45;3.97;;;0.70;;
23866;SDS011;12114;53.404;-1.502;2023-06-26T14:35:29;4.25;;;0.70;;
23866;SDS011;12114;53.404;-1.502;2023-06-26T14:38:13;4.45;;;0.50;;
23866;SDS011;12114;53.404;-1.502;2023-06-26T14:40:57;5.43;;;0.82;;
23866;SDS011;12114;53.404;-1.502;2023-06-26T14:43:41;1.83;;;0.40;;
23866;SDS011;12114;53.404;-1.502;2023-06-26T14:46:25;2.85;;;0.60;;
23866;SDS011;12114;53.404;-1.502;2023-06-26T14:49:09;3.42;;;0.63;;
23866;SDS011;12114;53.404;-1.502;2023-06-26T14:51:53;3.15;;;0.70;;
23866;SDS011;12114;53.404;-1.502;2023-06-26T14:54:37;3.20;;;0.65;;
23866;SDS011;12114;53.404;-1.502;2023-06-26T14:57:21;3.03;;;0.43;;
23866;SDS011;12114;53.404;-1.502;2023-06-26T15:00:05;4.63;;;0.93;;
23866;SDS011;12114;53.404;-1.502;2023-06-26T15:02:50;3.90;;;0.77;;
23866;SDS011;12114;53.404;-1.502;2023-06-26T15:05:37;4.25;;;0.70;;
23866;SDS011;12114;53.404;-1.502;2023-06-26T15:08:21;2.92;;;0.60;;
23866;SDS011;12114;53.404;-1.502;2023-06-26T15:11:05;3.45;;;0.85;;
23866;SDS011;12114;53.404;-1.502;2023-06-26T15:13:49;3.97;;;0.70;;
23866;SDS011;12114;53.404;-1.502;2023-06-26T15:16:33;2.88;;;0.63;;
23866;SDS011;12114;53.404;-1.502;2023-06-26T15:19:17;3.22;;;0.60;;
23866;SDS011;12114;53.404;-1.502;2023-06-26T15:22:01;3.60;;;0.60;;
23866;SDS011;12114;53.404;-1.502;2023-06-26T15:24:45;4.35;;;0.80;;
23866;SDS011;12114;53.404;-1.502;2023-06-26T15:27:29;4.22;;;0.60;;
23866;SDS011;12114;53.404;-1.502;2023-06-26T15:30:13;6.60;;;0.70;;
23866;SDS011;12114;53.404;-1.502;2023-06-26T15:32:58;2.70;;;0.60;;
23866;SDS011;12114;53.404;-1.502;2023-06-26T15:35:42;4.72;;;0.77;;
23866;SDS011;12114;53.404;-1.502;2023-06-26T15:38:26;3.92;;;0.75;;
23866;SDS011;12114;53.404;-1.502;2023-06-26T15:41:10;4.50;;;1.00;;
23866;SDS011;12114;53.404;-1.502;2023-06-26T15:43:54;4.00;;;0.75;;
23866;SDS011;12114;53.404;-1.502;2023-06-26T15:46:38;3.45;;;0.82;;
23866;SDS011;12114;53.404;-1.502;2023-06-26T15:49:22;7.13;;;0.80;;
23866;SDS011;12114;53.404;-1.502;2023-06-26T15:52:06;2.88;;;0.75;;
23866;SDS011;12114;53.404;-1.502;2023-06-26T15:54:50;4.82;;;1.08;;
23866;SDS011;12114;53.404;-1.502;2023-06-26T15:57:34;4.07;;;0.70;;
23866;SDS011;12114;53.404;-1.502;2023-06-26T16:00:19;5.10;;;1.02;;
23866;SDS011;12114;53.404;-1.502;2023-06-26T16:03:03;2.60;;;0.85;;
23866;SDS011;12114;53.404;-1.502;2023-06-26T16:05:47;3.65;;;0.80;;
23866;SDS011;12114;53.404;-1.502;2023-06-26T16:08:31;3.97;;;0.75;;
23866;SDS011;12114;53.404;-1.502;2023-06-26T16:11:15;4.97;;;1.10;;
23866;SDS011;12114;53.404;-1.502;2023-06-26T16:13:59;4.82;;;1.20;;
23866;SDS011;12114;53.404;-1.502;2023-06-26T16:16:43;2.95;;;0.80;;
23866;SDS011;12114;53.404;-1.502;2023-06-26T16:19:27;4.93;;;1.00;;
23866;SDS011;12114;53.404;-1.502;2023-06-26T16:22:11;4.15;;;1.10;;
23866;SDS011;12114;53.404;-1.502;2023-06-26T16:24:55;3.58;;;0.82;;
23866;SDS011;12114;53.404;-1.502;2023-06-26T16:27:40;6.20;;;0.88;;